Time;durP1;ratioP1;P1;durP2;ratioP2;P2;SDS_P1;SDS_P2;PMS_P1;PMS_P2;Temp;Humidity;BMP_temperature;BMP_pressure;BME280_temperature;BME280_humidity;BME280_pressure;Samples;Min_cycle;Max_cycle;Signal;HPM_P1;HPM_P2
2021/07/18 00:01:15;;;;;;;5.53;2.70;;;;;;;17.40;92.67;99498.81;10400697;28;20176;-78
2021/07/18 00:06:35;;;;;;;3.03;2.43;;;;;;;17.18;93.64;99494.94;10416750;28;20184;-77
2021/07/18 00:11:54;;;;;;;2.60;2.40;;;;;;;17.06;95.66;99487.28;10415849;28;20673;-80
2021/07/18 00:17:13;;;;;;;3.70;2.50;;;;;;;16.96;96.56;99485.50;10432633;28;20191;-78
2021/07/18 00:22:32;;;;;;;3.33;2.30;;;;;;;16.88;95.96;99483.34;10442205;28;20171;-81
2021/07/18 00:27:51;;;;;;;4.90;2.47;;;;;;;16.87;95.01;99487.34;10455655;28;20239;-80
2021/07/18 00:33:10;;;;;;;6.40;2.30;;;;;;;16.73;95.76;99481.28;10455974;28;20246;-80
2021/07/18 00:38:29;;;;;;;6.83;3.47;;;;;;;16.86;97.02;99482.97;10441875;28;20184;-80
2021/07/18 00:43:48;;;;;;;2.97;2.47;;;;;;;16.78;96.35;99485.16;10423029;28;20192;-78
2021/07/18 00:49:07;;;;;;;3.67;2.13;;;;;;;16.73;97.46;99481.28;10400062;28;20208;-79
2021/07/18 00:54:26;;;;;;;3.83;2.60;;;;;;;16.66;97.27;99482.25;10400143;28;20212;-78
2021/07/18 00:59:45;;;;;;;2.87;2.23;;;;;;;16.48;99.11;99478.28;10398828;28;20172;-81
2021/07/18 01:05:06;;;;;;;3.13;2.10;;;;;;;16.48;98.82;99481.03;10400164;28;20184;-76
2021/07/18 01:10:26;;;;;;;3.33;2.37;;;;;;;16.35;100.00;99474.59;10399311;28;20324;-77
2021/07/18 01:15:45;;;;;;;2.80;2.60;;;;;;;16.31;100.00;99473.88;10448400;28;20187;-80
2021/07/18 01:21:05;;;;;;;3.20;2.83;;;;;;;16.34;100.00;99476.59;10440715;28;20171;-78
2021/07/18 01:26:24;;;;;;;2.73;2.20;;;;;;;16.17;100.00;99476.91;10455712;28;20175;-79
2021/07/18 01:31:43;;;;;;;3.57;2.50;;;;;;;16.16;100.00;99480.88;10439331;28;20239;-77
2021/07/18 01:37:02;;;;;;;5.90;2.60;;;;;;;15.92;100.00;99487.69;10440373;28;20211;-78
2021/07/18 01:42:23;;;;;;;4.50;2.20;;;;;;;15.80;100.00;99477.22;10446716;28;20650;-81
2021/07/18 01:47:44;;;;;;;4.90;2.87;;;;;;;15.77;100.00;99486.41;10405235;28;20207;-76
2021/07/18 01:53:05;;;;;;;5.30;3.37;;;;;;;15.71;100.00;99485.31;10422892;28;20219;-76
2021/07/18 01:58:28;;;;;;;13.20;2.87;;;;;;;15.63;100.00;99481.09;10420589;28;20206;-78
2021/07/18 02:03:47;;;;;;;9.27;2.23;;;;;;;15.57;100.00;99476.47;10421611;28;20180;-78
2021/07/18 02:09:07;;;;;;;5.53;3.43;;;;;;;15.46;100.00;99482.19;10405968;28;20677;-77
2021/07/18 02:14:28;;;;;;;6.47;2.63;;;;;;;15.46;100.00;99482.19;10428985;28;20218;-77
2021/07/18 02:19:47;;;;;;;5.67;2.67;;;;;;;15.34;100.00;99485.59;10462064;28;20183;-76
2021/07/18 02:25:06;;;;;;;5.47;3.03;;;;;;;15.09;100.00;99505.75;10447029;28;20262;-78
2021/07/18 02:30:27;;;;;;;3.43;3.17;;;;;;;15.11;100.00;99506.91;10459958;28;20223;-80
2021/07/18 02:35:46;;;;;;;6.47;2.53;;;;;;;15.00;100.00;99508.25;10461630;28;20171;-79
2021/07/18 02:41:05;;;;;;;5.03;3.07;;;;;;;15.07;100.00;99502.63;10461439;28;20168;-80
2021/07/18 02:46:24;;;;;;;8.87;2.60;;;;;;;14.93;100.00;99503.59;10419224;28;20278;-77
2021/07/18 02:51:43;;;;;;;3.87;2.67;;;;;;;14.94;100.00;99496.88;10404120;28;20689;-78
2021/07/18 02:57:02;;;;;;;4.20;2.80;;;;;;;14.94;100.00;99494.09;10402103;28;20184;-80
2021/07/18 03:02:21;;;;;;;9.83;4.33;;;;;;;14.74;100.00;99495.19;10404256;28;20708;-79
2021/07/18 03:07:40;;;;;;;4.30;3.20;;;;;;;14.71;100.00;99496.81;10418913;28;20671;-78
2021/07/18 03:12:59;;;;;;;3.77;2.83;;;;;;;14.63;100.00;99505.59;10414123;28;20191;-79
2021/07/18 03:18:18;;;;;;;4.33;3.03;;;;;;;14.56;100.00;99502.94;10444820;28;20176;-77
2021/07/18 03:23:37;;;;;;;4.80;2.30;;;;;;;14.47;100.00;99510.97;10459743;28;20171;-77
2021/07/18 03:28:56;;;;;;;6.90;2.60;;;;;;;14.53;100.00;99501.78;10457999;28;20227;-77
2021/07/18 03:34:16;;;;;;;7.73;2.80;;;;;;;14.39;100.00;99503.94;10459225;28;20172;-78
2021/07/18 03:39:35;;;;;;;4.53;3.10;;;;;;;14.36;100.00;99504.78;10459101;28;20175;-80
2021/07/18 03:44:54;;;;;;;9.63;2.83;;;;;;;14.38;100.00;99511.47;10429823;28;20224;-80
2021/07/18 03:50:14;;;;;;;3.50;2.50;;;;;;;14.38;100.00;99505.13;10401683;28;20216;-79
2021/07/18 03:55:33;;;;;;;3.20;2.90;;;;;;;14.29;100.00;99501.31;10402119;28;20187;-81
2021/07/18 04:00:52;;;;;;;2.60;2.40;;;;;;;14.34;100.00;99509.16;10415796;28;20168;-80
2021/07/18 04:06:10;;;;;;;5.73;3.47;;;;;;;14.33;100.00;99505.59;10416723;28;20184;-78
2021/07/18 04:11:30;;;;;;;7.20;2.77;;;;;;;14.49;100.00;99509.38;10402173;28;20231;-77
2021/07/18 04:16:49;;;;;;;4.60;2.57;;;;;;;14.57;100.00;99510.03;10442530;28;20179;-79
2021/07/18 04:22:07;;;;;;;5.13;2.80;;;;;;;14.61;100.00;99514.34;10442241;28;20525;-81
2021/07/18 04:27:26;;;;;;;6.10;2.57;;;;;;;14.66;100.00;99521.41;10455918;28;20167;-82
2021/07/18 04:32:45;;;;;;;4.30;2.63;;;;;;;14.79;100.00;99523.19;10456903;28;20262;-78
2021/07/18 04:38:06;;;;;;;8.50;3.40;;;;;;;14.82;100.00;99525.13;10441740;28;20637;-77
2021/07/18 04:43:25;;;;;;;7.00;3.27;;;;;;;14.83;100.00;99531.47;10438022;28;20641;-77
2021/07/18 04:48:44;;;;;;;6.13;2.93;;;;;;;15.05;100.00;99522.44;10400028;28;20212;-77
2021/07/18 04:54:03;;;;;;;6.87;3.67;;;;;;;15.18;100.00;99531.72;10400431;28;20697;-77
2021/07/18 04:59:22;;;;;;;4.60;2.60;;;;;;;15.24;100.00;99536.44;10413864;28;20280;-78
2021/07/18 05:04:41;;;;;;;8.50;3.20;;;;;;;15.31;100.00;99535.50;10400082;28;20195;-81
2021/07/18 05:09:59;;;;;;;3.87;3.07;;;;;;;15.48;100.00;99534.44;10415470;28;20673;-80
2021/07/18 05:15:20;;;;;;;3.87;2.30;;;;;;;15.74;100.00;99539.97;10430161;28;20190;-76
2021/07/18 05:20:40;;;;;;;4.13;2.93;;;;;;;16.22;100.00;99532.72;10413738;28;20223;-80
2021/07/18 05:26:00;;;;;;;9.63;3.03;;;;;;;16.54;100.00;99537.69;10423080;28;20203;-78
2021/07/18 05:31:19;;;;;;;3.00;2.50;;;;;;;16.82;100.00;99546.22;10420852;28;20219;-77
2021/07/18 05:36:38;;;;;;;3.30;3.00;;;;;;;17.29;100.00;99544.78;10422726;28;20180;-80
2021/07/18 05:41:59;;;;;;;5.90;2.27;;;;;;;17.67;100.00;99541.84;10406172;28;20179;-79
2021/07/18 05:47:19;;;;;;;9.83;2.70;;;;;;;17.95;99.46;99548.69;10407237;28;20196;-77
2021/07/18 05:52:38;;;;;;;3.30;2.33;;;;;;;18.25;100.00;99539.97;10406918;28;20259;-79
2021/07/18 05:57:58;;;;;;;2.40;2.20;;;;;;;18.58;97.09;99544.97;10420666;28;20172;-78
2021/07/18 06:03:17;;;;;;;6.13;2.93;;;;;;;18.87;91.60;99534.56;10406682;28;20557;-80
2021/07/18 06:08:36;;;;;;;4.10;3.20;;;;;;;19.10;90.97;99545.47;10421120;28;20211;-78
2021/07/18 06:13:55;;;;;;;4.30;2.60;;;;;;;19.29;87.60;99545.25;10404859;28;20176;-78
2021/07/18 06:19:14;;;;;;;2.60;2.07;;;;;;;19.52;87.43;99547.69;10436084;28;20175;-80
2021/07/18 06:24:34;;;;;;;4.33;2.97;;;;;;;19.81;85.71;99542.72;10460212;28;20184;-80
2021/07/18 06:29:53;;;;;;;2.13;1.93;;;;;;;20.10;82.63;99539.34;10444652;28;20239;-81
2021/07/18 06:35:12;;;;;;;3.73;2.70;;;;;;;20.48;82.79;99534.38;10461809;28;20243;-78
2021/07/18 06:40:32;;;;;;;7.17;2.50;;;;;;;20.68;79.10;99540.41;10460825;28;20222;-78
2021/07/18 06:45:51;;;;;;;3.43;2.50;;;;;;;20.96;78.44;99544.97;10460050;28;20199;-80
2021/07/18 06:51:11;;;;;;;3.27;2.50;;;;;;;21.30;77.82;99540.03;10442775;28;20226;-79
2021/07/18 06:56:31;;;;;;;5.97;2.57;;;;;;;21.67;75.78;99546.56;10404538;28;20624;-80
2021/07/18 07:01:50;;;;;;;2.63;2.40;;;;;;;21.92;73.15;99547.88;10404390;28;20184;-77
2021/07/18 07:07:09;;;;;;;3.30;2.40;;;;;;;22.08;72.67;99550.38;10404127;28;20207;-77
2021/07/18 07:12:28;;;;;;;2.90;2.40;;;;;;;22.17;71.82;99558.81;10417767;28;20188;-77
2021/07/18 07:17:47;;;;;;;3.10;2.57;;;;;;;22.50;70.27;99557.00;10418835;28;20184;-76
2021/07/18 07:23:07;;;;;;;2.93;2.30;;;;;;;22.96;70.32;99552.88;10419625;28;20249;-79
2021/07/18 07:28:27;;;;;;;6.50;2.73;;;;;;;23.13;68.68;99560.53;10416731;28;20223;-79
2021/07/18 07:33:46;;;;;;;3.13;2.83;;;;;;;23.57;69.97;99553.97;10418234;28;20188;-82
2021/07/18 07:39:04;;;;;;;3.40;2.50;;;;;;;23.68;67.08;99548.56;10402765;28;20175;-79
2021/07/18 07:44:23;;;;;;;3.37;2.40;;;;;;;24.11;64.50;99553.66;10415862;28;20263;-81
2021/07/18 07:49:43;;;;;;;4.43;2.80;;;;;;;24.41;64.80;99546.88;10402161;28;20286;-79
2021/07/18 07:55:04;;;;;;;3.80;2.33;;;;;;;24.75;65.17;99540.66;10449617;28;20207;-79
2021/07/18 08:00:24;;;;;;;4.20;2.43;;;;;;;25.14;61.09;99540.91;10457094;28;20565;-79
2021/07/18 08:05:43;;;;;;;3.13;2.83;;;;;;;25.71;60.92;99546.94;10458188;28;20175;-81
2021/07/18 08:11:03;;;;;;;4.40;2.90;;;;;;;25.66;58.83;99545.59;10442416;28;20207;-81
2021/07/18 08:16:22;;;;;;;4.00;2.70;;;;;;;26.30;57.85;99549.06;10439639;28;20175;-79
2021/07/18 08:21:41;;;;;;;4.27;3.20;;;;;;;26.37;57.09;99546.56;10457611;28;20645;-79
2021/07/18 08:26:59;;;;;;;3.40;2.60;;;;;;;26.95;56.58;99549.84;10456001;28;20183;-82
2021/07/18 08:32:18;;;;;;;10.73;2.47;;;;;;;26.93;53.27;99540.31;10373521;28;20252;-78
2021/07/18 08:37:38;;;;;;;7.70;2.83;;;;;;;27.27;52.21;99553.50;10374976;28;20181;-81
2021/07/18 08:42:58;;;;;;;4.40;2.90;;;;;;;27.91;50.66;99543.22;10373602;28;20177;-79
2021/07/18 08:48:17;;;;;;;4.27;3.47;;;;;;;28.21;50.72;99533.88;10350909;28;20256;-81
2021/07/18 08:53:36;;;;;;;4.00;2.87;;;;;;;28.53;50.63;99536.06;10333068;28;20189;-81
2021/07/18 08:58:55;;;;;;;5.50;3.20;;;;;;;28.27;50.33;99537.50;10332432;28;20169;-81
2021/07/18 09:04:14;;;;;;;10.77;3.20;;;;;;;28.78;50.34;99523.78;10333543;28;20537;-80
2021/07/18 09:09:33;;;;;;;10.20;3.17;;;;;;;28.96;45.49;99533.91;10342333;28;20197;-79
2021/07/18 09:14:58;;;;;;;4.83;2.60;;;;;;;29.21;48.93;99523.06;10345476;28;20181;-79
2021/07/18 09:20:17;;;;;;;5.30;2.77;;;;;;;29.10;47.65;99525.13;10351778;28;20655;-82
2021/07/18 09:25:36;;;;;;;3.40;2.33;;;;;;;29.93;48.21;99517.38;10332397;28;20181;-80
2021/07/18 09:30:55;;;;;;;2.60;2.40;;;;;;;30.34;45.88;99511.28;10402149;28;20301;-77
2021/07/18 09:36:14;;;;;;;3.70;2.90;;;;;;;30.33;44.50;99498.38;10455684;28;20637;-77
2021/07/18 09:41:38;;;;;;;2.97;2.73;;;;;;;30.71;45.70;99497.44;10435126;28;20176;-78
2021/07/18 09:47:00;;;;;;;3.83;3.00;;;;;;;31.31;43.00;99496.25;10428795;28;20211;-77
2021/07/18 09:52:26;;;;;;;3.10;2.80;;;;;;;30.54;44.14;99510.94;10419814;28;20220;-78
2021/07/18 09:57:50;;;;;;;5.17;3.30;;;;;;;31.37;41.88;99492.06;10445708;28;20176;-78
2021/07/18 10:03:11;;;;;;;6.57;4.00;;;;;;;31.66;40.84;99494.88;10440010;28;20175;-78
2021/07/18 10:08:31;;;;;;;7.10;4.83;;;;;;;31.14;40.79;99481.38;10460366;28;20677;-75
2021/07/18 10:13:53;;;;;;;6.10;5.50;;;;;;;30.99;41.13;99492.34;10461105;28;20176;-77
2021/07/18 10:19:12;;;;;;;5.83;5.03;;;;;;;31.79;38.84;99489.31;10461252;28;20215;-75
2021/07/18 10:24:32;;;;;;;5.10;4.70;;;;;;;32.02;38.08;99484.91;10461820;28;20246;-75
2021/07/18 10:29:53;;;;;;;4.60;4.20;;;;;;;31.93;37.54;99485.28;10459346;28;20234;-74
2021/07/18 10:35:13;;;;;;;4.63;3.60;;;;;;;32.64;35.00;99481.56;10461581;28;20179;-75
2021/07/18 10:40:45;;;;;;;3.60;3.30;;;;;;;32.10;36.12;99476.59;10461198;28;20183;-77
2021/07/18 10:46:09;;;;;;;6.70;3.97;;;;;;;32.25;36.04;99480.50;10428916;28;20200;-77
2021/07/18 10:51:38;;;;;;;5.03;2.93;;;;;;;32.88;33.69;99478.59;10426928;28;20216;-77
2021/07/18 10:56:58;;;;;;;3.37;3.07;;;;;;;33.19;35.02;99469.31;10459302;28;20175;-76
2021/07/18 11:02:20;;;;;;;3.97;3.67;;;;;;;33.52;35.61;99463.78;10419430;28;20551;-78
2021/07/18 11:07:40;;;;;;;5.93;3.07;;;;;;;33.39;35.88;99463.78;10437088;28;20210;-77
2021/07/18 11:13:01;;;;;;;4.73;3.07;;;;;;;32.81;36.70;99465.00;10458787;28;20633;-75
2021/07/18 11:18:35;;;;;;;3.00;2.80;;;;;;;32.92;36.16;99464.03;10440300;28;20183;-78
2021/07/18 11:23:55;;;;;;;4.00;3.03;;;;;;;33.15;35.30;99457.47;10459585;28;20545;-75
2021/07/18 11:29:32;;;;;;;2.87;2.67;;;;;;;33.39;35.25;99460.16;10444188;28;20227;-76
2021/07/18 11:34:55;;;;;;;3.20;3.00;;;;;;;33.99;35.00;99447.59;10417945;28;20183;-75
2021/07/18 11:40:15;;;;;;;3.00;2.80;;;;;;;34.20;36.30;99442.75;10420843;28;20190;-75
2021/07/18 11:45:35;;;;;;;2.87;2.67;;;;;;;33.99;36.71;99433.31;10456332;28;20203;-75
2021/07/18 11:51:10;;;;;;;3.33;2.70;;;;;;;33.43;35.08;99427.13;10442574;28;20203;-75
2021/07/18 11:56:39;;;;;;;3.90;2.77;;;;;;;33.94;35.29;99422.75;10443170;28;20254;-75
2021/07/18 12:01:58;;;;;;;2.70;2.50;;;;;;;34.21;33.57;99421.44;10443017;28;20197;-75
2021/07/18 12:07:19;;;;;;;2.90;2.70;;;;;;;34.07;34.09;99408.50;10450957;28;20224;-74
2021/07/18 12:12:38;;;;;;;2.60;2.40;;;;;;;33.45;36.20;99400.91;10400011;28;20575;-75
2021/07/18 12:18:06;;;;;;;2.37;2.23;;;;;;;35.04;32.94;99392.47;10416431;28;20187;-75
2021/07/18 12:23:25;;;;;;;2.70;2.47;;;;;;;34.94;36.59;99396.34;10423116;28;20539;-76
2021/07/18 12:28:44;;;;;;;2.83;2.13;;;;;;;35.14;29.69;99388.53;10452657;28;20254;-75
2021/07/18 12:34:03;;;;;;;2.80;2.10;;;;;;;34.98;33.34;99377.53;10423136;28;20194;-75
2021/07/18 12:39:30;;;;;;;2.00;1.90;;;;;;;33.77;33.69;99373.03;10415381;28;20183;-78
2021/07/18 12:44:53;;;;;;;2.57;1.83;;;;;;;32.95;34.56;99381.03;10446749;28;20627;-76
2021/07/18 12:50:29;;;;;;;4.37;1.90;;;;;;;33.60;35.50;99369.75;10452064;28;20290;-77
2021/07/18 12:55:58;;;;;;;3.50;2.53;;;;;;;34.45;34.04;99367.63;10451539;28;20191;-75
2021/07/18 13:01:18;;;;;;;2.10;1.90;;;;;;;35.27;32.02;99364.81;10422612;28;20636;-76
2021/07/18 13:06:42;;;;;;;3.20;2.20;;;;;;;34.94;30.59;99350.59;10455947;28;20174;-75
2021/07/18 13:12:01;;;;;;;1.60;1.50;;;;;;;35.43;32.62;99352.91;10453767;28;20218;-75
2021/07/18 13:17:20;;;;;;;1.67;1.50;;;;;;;35.76;28.89;99351.22;10448451;28;20641;-75
2021/07/18 13:22:44;;;;;;;1.93;1.83;;;;;;;35.85;28.57;99355.09;10419704;28;20217;-75
2021/07/18 13:28:06;;;;;;;2.43;1.53;;;;;;;35.56;29.54;99344.22;10448263;28;20230;-74
2021/07/18 13:33:25;;;;;;;3.93;1.80;;;;;;;35.86;30.01;99344.41;10455160;28;20186;-76
2021/07/18 13:38:45;;;;;;;2.83;2.13;;;;;;;36.07;29.23;99336.50;10455050;28;20186;-75
2021/07/18 13:44:05;;;;;;;1.97;1.80;;;;;;;36.36;30.81;99329.31;10445066;28;20195;-76
2021/07/18 13:49:24;;;;;;;2.33;2.10;;;;;;;36.38;30.94;99329.50;10421613;28;20199;-76
2021/07/18 13:54:43;;;;;;;1.60;1.50;;;;;;;35.16;34.10;99333.66;10435807;28;20641;-74
2021/07/18 14:00:04;;;;;;;4.00;1.60;;;;;;;35.84;30.51;99327.78;10407505;28;20215;-76
2021/07/18 14:05:23;;;;;;;1.80;1.70;;;;;;;36.28;28.20;99317.84;10462673;28;20618;-76
2021/07/18 14:10:44;;;;;;;9.20;1.90;;;;;;;35.48;30.28;99309.03;10461955;28;20206;-76
2021/07/18 14:16:03;;;;;;;2.20;2.10;;;;;;;35.49;31.06;99306.97;10460924;28;20183;-77
2021/07/18 14:21:23;;;;;;;2.40;2.20;;;;;;;35.69;33.27;99318.38;10439291;28;20191;-77
2021/07/18 14:26:42;;;;;;;2.30;2.13;;;;;;;35.98;30.63;99308.38;10427301;28;20665;-77
2021/07/18 14:32:01;;;;;;;2.40;2.20;;;;;;;35.62;31.62;99307.66;10446377;28;20229;-76
2021/07/18 14:37:20;;;;;;;2.83;1.50;;;;;;;35.99;30.34;99304.94;10446338;28;20171;-74
2021/07/18 14:42:40;;;;;;;3.60;2.10;;;;;;;35.24;32.85;99305.84;10408258;28;20207;-77
2021/07/18 14:48:00;;;;;;;6.10;1.70;;;;;;;35.69;29.99;99306.91;10419796;28;20172;-76
2021/07/18 14:53:19;;;;;;;2.57;2.10;;;;;;;35.67;30.29;99300.19;10418626;28;20172;-76
2021/07/18 14:58:38;;;;;;;5.63;2.07;;;;;;;35.38;31.97;99302.31;10441654;28;20210;-76
2021/07/18 15:03:57;;;;;;;2.03;1.83;;;;;;;35.66;31.53;99290.09;10460804;28;20217;-75
2021/07/18 15:09:16;;;;;;;2.13;1.97;;;;;;;35.09;30.90;99291.47;10440166;28;20214;-77
2021/07/18 15:14:36;;;;;;;2.23;2.13;;;;;;;34.77;30.71;99295.94;10417718;28;20702;-77
2021/07/18 15:19:55;;;;;;;2.40;2.20;;;;;;;34.86;32.53;99281.13;10403813;28;20212;-79
2021/07/18 15:25:14;;;;;;;4.60;2.17;;;;;;;34.89;31.20;99285.75;10418819;28;20167;-77
2021/07/18 15:30:33;;;;;;;2.00;1.90;;;;;;;34.70;31.40;99277.38;10416616;28;20266;-77
2021/07/18 15:35:56;;;;;;;3.00;1.97;;;;;;;34.34;32.38;99269.97;10403292;28;20179;-77
2021/07/18 15:41:15;;;;;;;2.40;2.20;;;;;;;34.30;31.87;99269.56;10418046;28;20172;-79
2021/07/18 15:46:34;;;;;;;2.00;1.90;;;;;;;34.40;33.03;99268.53;10416396;28;20630;-79
2021/07/18 15:51:53;;;;;;;2.03;1.83;;;;;;;34.52;31.28;99266.16;10402250;28;20215;-79
2021/07/18 15:57:12;;;;;;;2.77;2.00;;;;;;;34.13;31.67;99263.50;10414534;28;20210;-77
2021/07/18 16:02:31;;;;;;;2.53;2.20;;;;;;;33.39;33.67;99266.91;10443037;28;20178;-77
2021/07/18 16:07:50;;;;;;;2.17;1.97;;;;;;;33.59;31.80;99254.84;10458131;28;20527;-77
2021/07/18 16:13:09;;;;;;;2.90;2.57;;;;;;;33.49;34.21;99256.59;10456843;28;20175;-79
2021/07/18 16:18:28;;;;;;;4.83;4.53;;;;;;;33.00;35.55;99257.56;10457839;28;20656;-78
2021/07/18 16:23:48;;;;;;;1.87;1.77;;;;;;;33.44;33.56;99259.56;10442491;28;20561;-78
2021/07/18 16:29:06;;;;;;;2.23;1.70;;;;;;;33.20;33.91;99253.34;10423507;28;20231;-76
2021/07/18 16:34:25;;;;;;;2.03;1.93;;;;;;;33.29;34.48;99254.41;10415832;28;20183;-78
2021/07/18 16:39:44;;;;;;;2.70;2.00;;;;;;;32.54;33.51;99254.53;10400773;28;20180;-79
2021/07/18 16:45:05;;;;;;;1.93;1.83;;;;;;;32.33;34.40;99250.75;10399123;28;20589;-77
2021/07/18 16:50:24;;;;;;;1.80;1.70;;;;;;;32.28;32.91;99254.47;10415219;28;20243;-77
2021/07/18 16:55:43;;;;;;;2.33;2.23;;;;;;;32.25;34.15;99258.38;10400293;28;20578;-76
2021/07/18 17:01:03;;;;;;;3.47;2.00;;;;;;;32.07;34.90;99259.19;10413968;28;20548;-76
2021/07/18 17:06:22;;;;;;;2.30;2.10;;;;;;;32.35;34.84;99270.16;10443116;28;20191;-77
2021/07/18 17:11:41;;;;;;;2.40;2.20;;;;;;;32.59;33.79;99271.53;10432643;28;20207;-75
2021/07/18 17:17:00;;;;;;;2.60;2.40;;;;;;;32.95;34.61;99260.53;10413893;28;20172;-78
2021/07/18 17:22:19;;;;;;;4.33;2.67;;;;;;;33.05;34.62;99264.47;10409665;28;20544;-79
2021/07/18 17:27:38;;;;;;;3.10;2.70;;;;;;;33.08;35.10;99263.41;10454362;28;20223;-76
2021/07/18 17:32:57;;;;;;;5.63;2.53;;;;;;;33.58;34.33;99263.94;10440505;28;20183;-78
2021/07/18 17:38:17;;;;;;;3.43;2.60;;;;;;;33.85;34.48;99269.03;10455476;28;20179;-79
2021/07/18 17:43:36;;;;;;;3.23;3.00;;;;;;;34.29;34.18;99262.31;10438906;28;20187;-80
2021/07/18 17:48:55;;;;;;;3.97;3.67;;;;;;;32.92;36.94;99265.22;10455254;28;20211;-75
2021/07/18 17:54:14;;;;;;;3.90;3.70;;;;;;;30.84;41.86;99282.41;10439955;28;20179;-79
2021/07/18 17:59:33;;;;;;;4.07;3.77;;;;;;;30.01;44.95;99273.03;10453903;28;20172;-78
2021/07/18 18:04:52;;;;;;;4.40;4.00;;;;;;;29.08;47.20;99272.66;10454740;28;20167;-80
2021/07/18 18:10:13;;;;;;;4.03;3.60;;;;;;;28.37;49.87;99276.38;10454506;28;20203;-77
2021/07/18 18:15:33;;;;;;;4.10;3.80;;;;;;;27.68;51.38;99278.59;10453430;28;20179;-77
2021/07/18 18:20:51;;;;;;;4.30;4.00;;;;;;;27.31;52.59;99277.91;10440868;28;20187;-78
2021/07/18 18:26:10;;;;;;;3.97;3.67;;;;;;;27.04;53.69;99289.06;10455377;28;20586;-79
2021/07/18 18:31:29;;;;;;;4.47;4.17;;;;;;;26.77;53.91;99289.66;10444759;28;20301;-79
2021/07/18 18:36:49;;;;;;;4.60;4.30;;;;;;;26.59;56.34;99286.44;10461973;28;20655;-76
2021/07/18 18:42:08;;;;;;;4.13;3.83;;;;;;;26.30;57.68;99286.69;10450976;28;20207;-77
2021/07/18 18:47:28;;;;;;;4.30;4.00;;;;;;;26.03;57.59;99284.41;10461424;28;20206;-77
2021/07/18 18:52:47;;;;;;;4.13;3.83;;;;;;;25.81;58.87;99289.06;10445346;28;20207;-77
2021/07/18 18:58:05;;;;;;;4.10;3.30;;;;;;;25.51;60.68;99284.84;10459474;28;20179;-76
2021/07/18 19:03:25;;;;;;;5.23;4.77;;;;;;;25.20;61.65;99277.03;10460846;28;20183;-76
2021/07/18 19:08:44;;;;;;;4.80;4.47;;;;;;;25.07;62.79;99287.84;10445248;28;20202;-75
2021/07/18 19:14:06;;;;;;;4.53;4.13;;;;;;;24.61;64.27;99297.41;10432418;28;20172;-79
2021/07/18 19:19:26;;;;;;;4.60;4.00;;;;;;;24.38;64.19;99300.34;10418801;28;20658;-77
2021/07/18 19:24:46;;;;;;;4.60;4.20;;;;;;;24.07;65.64;99308.47;10403187;28;20184;-76
2021/07/18 19:30:12;;;;;;;5.07;4.67;;;;;;;23.96;65.89;99313.13;10416584;28;20227;-78
2021/07/18 19:35:31;;;;;;;4.83;4.43;;;;;;;23.68;67.59;99318.19;10418232;28;20176;-75
2021/07/18 19:40:50;;;;;;;7.10;4.40;;;;;;;23.58;68.10;99316.75;10417086;28;20211;-75
2021/07/18 19:46:09;;;;;;;5.90;3.97;;;;;;;23.53;68.53;99334.25;10401151;28;20188;-75
2021/07/18 19:51:28;;;;;;;3.87;3.57;;;;;;;23.46;68.96;99334.63;10402352;28;20223;-76
2021/07/18 19:56:47;;;;;;;4.40;4.10;;;;;;;23.33;69.06;99338.16;10402053;28;20168;-77
2021/07/18 20:02:07;;;;;;;8.53;4.67;;;;;;;23.09;70.81;99340.97;10402241;28;20560;-77
2021/07/18 20:07:26;;;;;;;4.07;3.83;;;;;;;23.01;71.20;99344.56;10417073;28;20180;-78
2021/07/18 20:12:46;;;;;;;4.07;3.77;;;;;;;22.88;71.18;99352.41;10417857;28;20286;-77
2021/07/18 20:18:05;;;;;;;4.10;3.70;;;;;;;22.68;72.37;99355.03;10442698;28;20630;-78
2021/07/18 20:23:24;;;;;;;4.03;3.63;;;;;;;22.52;73.54;99361.00;10457720;28;20175;-78
2021/07/18 20:28:44;;;;;;;3.87;3.57;;;;;;;22.40;73.63;99367.56;10455741;28;20239;-76
2021/07/18 20:34:08;;;;;;;3.80;3.60;;;;;;;22.40;74.06;99366.81;10457468;28;20183;-79
2021/07/18 20:39:28;;;;;;;5.73;4.00;;;;;;;22.35;73.84;99364.63;10457211;28;20262;-77
2021/07/18 20:44:48;;;;;;;5.90;4.20;;;;;;;22.34;74.10;99357.47;10417446;28;20191;-78
2021/07/18 20:50:08;;;;;;;4.57;4.27;;;;;;;22.26;74.66;99361.81;10399901;28;20211;-77
2021/07/18 20:55:27;;;;;;;4.57;4.13;;;;;;;22.13;74.93;99361.22;10400209;28;20627;-79
2021/07/18 21:00:46;;;;;;;5.00;4.60;;;;;;;22.14;75.20;99357.94;10428275;28;20175;-76
2021/07/18 21:06:06;;;;;;;4.50;4.10;;;;;;;22.08;76.30;99354.22;10455935;28;20183;-77
2021/07/18 21:11:25;;;;;;;4.63;4.23;;;;;;;21.98;76.83;99363.13;10440581;28;20199;-76
2021/07/18 21:16:44;;;;;;;4.57;4.20;;;;;;;21.89;77.24;99361.09;10454717;28;20547;-77
2021/07/18 21:22:03;;;;;;;5.73;4.70;;;;;;;21.77;77.82;99362.06;10455908;28;20183;-77
2021/07/18 21:27:27;;;;;;;5.17;4.67;;;;;;;21.68;78.75;99373.25;10454401;28;20496;-75
2021/07/18 21:32:46;;;;;;;5.23;4.80;;;;;;;21.56;78.89;99359.41;10455004;28;20353;-78
2021/07/18 21:38:06;;;;;;;4.47;4.27;;;;;;;21.52;78.51;99361.56;10455681;28;20598;-75
2021/07/18 21:43:25;;;;;;;4.80;4.30;;;;;;;21.46;79.38;99365.44;10438952;28;20218;-77
2021/07/18 21:48:45;;;;;;;4.50;4.20;;;;;;;21.37;80.75;99362.63;10440206;28;20648;-75
2021/07/18 21:54:03;;;;;;;4.93;4.53;;;;;;;21.26;83.06;99367.88;10405783;28;20184;-76
2021/07/18 21:59:22;;;;;;;4.30;4.00;;;;;;;21.11;83.58;99361.31;10412924;28;20626;-76
2021/07/18 22:04:41;;;;;;;5.70;4.60;;;;;;;20.92;84.85;99365.31;10420141;28;20180;-75
2021/07/18 22:10:00;;;;;;;5.40;4.90;;;;;;;20.72;85.19;99369.72;10421375;28;20596;-75
2021/07/18 22:15:22;;;;;;;8.37;5.07;;;;;;;20.71;87.22;99366.16;10420135;28;20203;-75
2021/07/18 22:20:43;;;;;;;4.97;4.33;;;;;;;20.41;89.70;99364.16;10421429;28;20206;-79
2021/07/18 22:26:02;;;;;;;6.03;4.73;;;;;;;20.27;91.49;99364.69;10422073;28;20191;-77
2021/07/18 22:31:21;;;;;;;4.93;4.57;;;;;;;20.00;93.93;99366.53;10418722;28;20660;-77
2021/07/18 22:36:41;;;;;;;5.23;4.50;;;;;;;19.79;95.86;99366.53;10405682;28;20195;-77
2021/07/18 22:42:00;;;;;;;5.30;4.90;;;;;;;19.70;96.60;99363.66;10419037;28;20651;-79
2021/07/18 22:47:19;;;;;;;4.67;4.27;;;;;;;19.54;96.94;99366.63;10420346;28;20184;-78
2021/07/18 22:52:39;;;;;;;6.67;4.47;;;;;;;19.61;98.06;99366.38;10419331;28;20212;-79
2021/07/18 22:58:00;;;;;;;5.90;4.93;;;;;;;19.51;98.54;99373.84;10418638;28;20623;-79
2021/07/18 23:03:22;;;;;;;6.70;5.30;;;;;;;19.48;98.92;99369.19;10419727;28;20171;-76
2021/07/18 23:08:41;;;;;;;5.20;4.70;;;;;;;19.30;99.90;99369.03;10419241;28;20203;-76
2021/07/18 23:14:00;;;;;;;5.60;4.77;;;;;;;19.09;100.00;99368.16;10416757;28;20180;-78
2021/07/18 23:19:19;;;;;;;5.60;5.20;;;;;;;19.07;100.00;99365.81;10403831;28;20180;-75
2021/07/18 23:24:37;;;;;;;5.83;5.23;;;;;;;18.91;100.00;99357.56;10444128;28;20179;-77
2021/07/18 23:29:56;;;;;;;5.70;4.87;;;;;;;18.95;100.00;99363.03;10458087;28;20231;-76
2021/07/18 23:35:16;;;;;;;5.40;4.97;;;;;;;19.05;100.00;99361.91;10459600;28;20171;-78
2021/07/18 23:40:34;;;;;;;7.30;4.70;;;;;;;18.71;100.00;99354.25;10459267;28;20191;-79
2021/07/18 23:45:54;;;;;;;5.20;4.50;;;;;;;18.52;100.00;99360.06;10442714;28;20258;-78
2021/07/18 23:51:13;;;;;;;6.97;5.20;;;;;;;18.40;100.00;99355.25;10430901;28;20662;-76
2021/07/18 23:56:32;;;;;;;7.90;5.43;;;;;;;18.48;100.00;99360.19;10417540;28;20176;-78
